Terminal Aerodrome Forecast
Issued by NWS

Home | Current Version | Previous Version | Text Only | Print | Product List | Glossary On
Versions: 1 2 3 4 5 6 7 8 9 10 11 12 13 14 15 16 17 18
000
FTUS46 KSGX 300302 AAA
TAFSNA
TAF AMD
KSNA 300302Z 3003/3024 20010KT P6SM SCT015 SCT040 SCT100
     FM300500 VRB05KT P6SM VCTS SCT015 BKN040 BKN100CB
     FM301700 VRB05KT P6SM SCT016 SCT040=

USA.gov is the U.S. government's official web portal to all federal, state and local government web resources and services.